Time;durP1;ratioP1;P1;durP2;ratioP2;P2;SDS_P1;SDS_P2;PMS_P1;PMS_P2;Temp;Humidity;BMP_temperature;BMP_pressure;BME280_temperature;BME280_humidity;BME280_pressure;Samples;Min_cycle;Max_cycle;Signal;HPM_P1;HPM_P2
2022/08/07 00:01:09;;;;;;;3.10;2.10;;;24.00;52.60;;;;;;4507825;31;20103;-76
2022/08/07 00:03:35;;;;;;;2.90;1.90;;;24.00;52.60;;;;;;4493169;31;20406;-69
2022/08/07 00:06:02;;;;;;;4.47;2.00;;;24.00;52.60;;;;;;4507582;31;20093;-68
2022/08/07 00:08:28;;;;;;;1.95;1.75;;;24.00;52.60;;;;;;4507930;31;20190;-68
2022/08/07 00:10:54;;;;;;;2.38;1.90;;;24.00;52.60;;;;;;4507632;31;20379;-70
2022/08/07 00:13:21;;;;;;;2.63;2.10;;;24.00;52.60;;;;;;4507603;31;20508;-68
2022/08/07 00:15:47;;;;;;;2.88;2.58;;;24.00;52.60;;;;;;4511098;31;20065;-68
2022/08/07 00:18:20;;;;;;;3.47;2.20;;;24.00;52.70;;;;;;4511020;31;20599;-68
2022/08/07 00:20:48;;;;;;;1.92;1.80;;;24.00;52.60;;;;;;4510478;31;20647;-68
2022/08/07 00:23:13;;;;;;;2.60;2.00;;;23.90;52.60;;;;;;4510686;31;20087;-73
2022/08/07 00:25:39;;;;;;;3.05;2.00;;;24.00;52.60;;;;;;4510619;31;20113;-68
2022/08/07 00:28:05;;;;;;;2.30;2.10;;;24.00;52.60;;;;;;4510905;31;20501;-69
2022/08/07 00:30:31;;;;;;;1.98;1.77;;;23.90;52.50;;;;;;4510397;31;20085;-68
2022/08/07 00:32:58;;;;;;;2.40;1.73;;;23.90;52.50;;;;;;4510728;31;20095;-68
2022/08/07 00:35:25;;;;;;;2.75;1.85;;;23.90;52.60;;;;;;4510625;31;20057;-68
2022/08/07 00:37:51;;;;;;;2.13;1.92;;;23.90;52.60;;;;;;4510465;31;20150;-69
2022/08/07 00:40:17;;;;;;;2.40;1.92;;;23.90;52.60;;;;;;4510484;31;20092;-69
2022/08/07 00:42:44;;;;;;;2.38;2.13;;;23.90;52.60;;;;;;4510662;31;20072;-68
2022/08/07 00:45:10;;;;;;;2.70;1.85;;;23.90;52.60;;;;;;4509838;31;20134;-68
2022/08/07 00:47:37;;;;;;;3.13;2.10;;;23.90;52.60;;;;;;4496215;31;20494;-68
2022/08/07 00:50:04;;;;;;;2.40;2.08;;;23.90;52.60;;;;;;4510425;31;20077;-68
2022/08/07 00:52:30;;;;;;;2.47;1.77;;;23.90;52.60;;;;;;4510082;31;20123;-68
2022/08/07 00:54:56;;;;;;;2.65;1.90;;;23.90;52.60;;;;;;4510231;31;20069;-68
2022/08/07 00:57:23;;;;;;;2.38;2.00;;;23.90;52.60;;;;;;4510221;31;20153;-68
2022/08/07 00:59:50;;;;;;;2.05;1.85;;;23.80;52.60;;;;;;4509910;31;20234;-68
2022/08/07 01:02:16;;;;;;;1.73;1.63;;;23.80;52.60;;;;;;4509885;31;20563;-68
2022/08/07 01:04:41;;;;;;;2.17;1.88;;;23.80;53.60;;;;;;4510105;31;20088;-68
2022/08/07 01:07:07;;;;;;;2.20;2.00;;;23.80;52.60;;;;;;4509934;31;20145;-68
2022/08/07 01:09:33;;;;;;;2.10;1.60;;;23.80;52.70;;;;;;4495490;31;20388;-69
2022/08/07 01:11:59;;;;;;;2.72;2.05;;;23.80;52.70;;;;;;4509728;31;20391;-68
2022/08/07 01:14:26;;;;;;;2.13;1.92;;;23.80;52.70;;;;;;4510005;31;20076;-68
2022/08/07 01:16:52;;;;;;;2.38;2.00;;;23.80;52.70;;;;;;4509651;31;20073;-68
2022/08/07 01:19:21;;;;;;;1.88;1.77;;;23.80;52.70;;;;;;4509962;31;20084;-68
2022/08/07 01:21:49;;;;;;;2.40;2.17;;;23.80;52.70;;;;;;4509776;31;20230;-68
2022/08/07 01:24:16;;;;;;;2.38;1.85;;;23.80;52.70;;;;;;4509883;31;20088;-68
2022/08/07 01:26:42;;;;;;;2.65;2.00;;;23.80;52.70;;;;;;4508858;31;20065;-69
2022/08/07 01:29:10;;;;;;;3.08;2.22;;;23.80;52.70;;;;;;4509509;31;20418;-68
2022/08/07 01:31:37;;;;;;;2.20;2.00;;;23.80;52.70;;;;;;4509322;31;20564;-68
2022/08/07 01:34:04;;;;;;;2.00;1.80;;;23.80;52.70;;;;;;4509659;31;20169;-68
2022/08/07 01:36:30;;;;;;;2.03;1.70;;;23.80;52.70;;;;;;4495134;31;20518;-68
2022/08/07 01:38:57;;;;;;;2.38;2.03;;;23.80;52.70;;;;;;4509890;31;20209;-69
2022/08/07 01:41:24;;;;;;;2.25;1.80;;;23.70;52.70;;;;;;4509588;31;20084;-68
2022/08/07 01:43:50;;;;;;;1.60;1.50;;;23.70;52.70;;;;;;4509586;31;20506;-68
2022/08/07 01:46:19;;;;;;;3.30;1.92;;;23.70;52.70;;;;;;4509233;31;20069;-68
2022/08/07 01:48:47;;;;;;;3.15;1.73;;;23.70;52.70;;;;;;4509203;31;20085;-68
2022/08/07 01:51:18;;;;;;;2.53;2.00;;;23.70;52.80;;;;;;4509470;31;20089;-70
2022/08/07 01:53:46;;;;;;;1.77;1.58;;;23.70;52.80;;;;;;4509942;31;20057;-69
2022/08/07 01:56:16;;;;;;;2.00;1.88;;;23.70;52.80;;;;;;4509338;31;20077;-68
2022/08/07 01:58:51;;;;;;;2.13;1.92;;;23.70;52.80;;;;;;4509278;31;20081;-68
2022/08/07 02:01:26;;;;;;;3.10;2.00;;;23.70;52.80;;;;;;4509434;31;20072;-68
2022/08/07 02:04:16;;;;;;;1.70;1.60;;;23.70;52.80;;;;;;4494885;31;20167;-69
2022/08/07 02:06:44;;;;;;;1.90;1.70;;;23.70;52.90;;;;;;4509384;31;20126;-68
2022/08/07 02:09:14;;;;;;;2.03;1.83;;;23.60;52.80;;;;;;4509191;31;20095;-69
2022/08/07 02:11:43;;;;;;;1.88;1.77;;;23.60;52.80;;;;;;4509187;31;20524;-69
2022/08/07 02:14:11;;;;;;;2.30;1.95;;;23.70;52.90;;;;;;4494524;31;20143;-68
2022/08/07 02:16:38;;;;;;;2.00;1.80;;;23.60;52.90;;;;;;4509241;31;20135;-68
2022/08/07 02:19:07;;;;;;;1.90;1.77;;;23.60;52.90;;;;;;4509006;31;20083;-68
2022/08/07 02:21:36;;;;;;;2.30;2.10;;;23.60;52.90;;;;;;4494429;31;20425;-69
2022/08/07 02:24:04;;;;;;;1.95;1.80;;;23.60;52.90;;;;;;4508955;31;20210;-69
2022/08/07 02:26:32;;;;;;;2.00;1.80;;;23.60;52.90;;;;;;4508850;31;20126;-68
2022/08/07 02:28:58;;;;;;;2.85;2.10;;;23.60;52.90;;;;;;4508888;31;20211;-68
2022/08/07 02:31:26;;;;;;;2.00;1.85;;;23.60;52.90;;;;;;4494610;31;20198;-69
2022/08/07 02:33:53;;;;;;;2.00;1.90;;;23.60;52.90;;;;;;4508766;31;20073;-71
2022/08/07 02:36:20;;;;;;;2.20;1.90;;;23.60;52.90;;;;;;4508559;31;20203;-69
2022/08/07 02:38:47;;;;;;;2.00;1.80;;;23.60;52.80;;;;;;4493633;31;20076;-68
2022/08/07 02:41:13;;;;;;;1.60;1.50;;;23.60;52.90;;;;;;4508881;31;20169;-69
2022/08/07 02:43:41;;;;;;;1.83;1.70;;;23.60;52.90;;;;;;4508647;31;20076;-70
2022/08/07 02:46:09;;;;;;;2.10;1.90;;;23.50;52.80;;;;;;4508499;31;20077;-69
2022/08/07 02:48:37;;;;;;;2.05;1.73;;;23.60;52.90;;;;;;4508774;31;20080;-68
2022/08/07 02:51:12;;;;;;;2.17;1.70;;;23.50;52.80;;;;;;4508499;31;20099;-69
2022/08/07 02:53:39;;;;;;;1.80;1.70;;;23.50;52.80;;;;;;4508883;31;20080;-69
2022/08/07 02:56:08;;;;;;;1.85;1.70;;;23.60;52.90;;;;;;4508370;31;20076;-68
2022/08/07 02:58:36;;;;;;;1.88;1.50;;;23.50;52.80;;;;;;4508710;31;20091;-69
2022/08/07 03:01:02;;;;;;;1.95;1.77;;;23.50;52.80;;;;;;4508394;31;20089;-68
2022/08/07 03:03:32;;;;;;;2.60;1.80;;;23.50;52.80;;;;;;4508042;31;20060;-69
2022/08/07 03:05:58;;;;;;;1.70;1.60;;;23.50;52.80;;;;;;4508273;31;20120;-68
2022/08/07 03:08:24;;;;;;;1.83;1.73;;;23.50;52.80;;;;;;4508346;31;20120;-68
2022/08/07 03:10:51;;;;;;;1.77;1.67;;;23.50;52.80;;;;;;4508316;31;20414;-68
2022/08/07 03:13:17;;;;;;;1.80;1.70;;;23.50;52.80;;;;;;4508229;31;20138;-68
2022/08/07 03:15:44;;;;;;;1.98;1.80;;;23.50;52.80;;;;;;4494083;31;20077;-68
2022/08/07 03:18:11;;;;;;;1.80;1.70;;;23.40;52.70;;;;;;4508185;31;20089;-68
2022/08/07 03:20:39;;;;;;;1.58;1.48;;;23.40;52.80;;;;;;4508145;31;20068;-68
2022/08/07 03:23:05;;;;;;;2.08;1.90;;;23.50;52.90;;;;;;4508118;31;20540;-68
2022/08/07 03:25:34;;;;;;;1.80;1.67;;;23.40;52.80;;;;;;4508057;31;20120;-69
2022/08/07 03:28:01;;;;;;;1.95;1.75;;;23.40;52.90;;;;;;4507754;31;20502;-68
2022/08/07 03:30:29;;;;;;;1.73;1.63;;;23.40;52.90;;;;;;4508277;31;20096;-68
2022/08/07 03:32:56;;;;;;;1.92;1.67;;;23.40;52.90;;;;;;4507726;31;20502;-68
2022/08/07 03:35:26;;;;;;;1.98;1.83;;;23.40;52.90;;;;;;4508164;31;20088;-68
2022/08/07 03:38:00;;;;;;;1.70;1.60;;;23.40;52.90;;;;;;4507952;31;20417;-68
2022/08/07 03:40:27;;;;;;;1.98;1.50;;;23.40;53.00;;;;;;4507741;31;20068;-68
2022/08/07 03:42:54;;;;;;;1.80;1.70;;;23.40;53.00;;;;;;4507871;31;20076;-68
2022/08/07 03:45:22;;;;;;;2.67;1.70;;;23.40;53.00;;;;;;4507890;31;20065;-68
2022/08/07 03:47:49;;;;;;;2.10;1.90;;;23.40;53.00;;;;;;4507950;31;20073;-68
2022/08/07 03:50:18;;;;;;;1.60;1.48;;;23.40;53.00;;;;;;4507636;31;20080;-69
2022/08/07 03:52:45;;;;;;;1.70;1.60;;;23.40;53.00;;;;;;4508029;31;20217;-68
2022/08/07 03:55:12;;;;;;;3.05;1.80;;;23.30;53.00;;;;;;4508009;31;20113;-68
2022/08/07 03:57:39;;;;;;;1.55;1.45;;;23.30;53.00;;;;;;4507765;31;20268;-68
2022/08/07 04:00:06;;;;;;;3.08;1.63;;;23.30;53.00;;;;;;4508009;31;20096;-69
2022/08/07 04:02:33;;;;;;;1.52;1.42;;;23.30;53.00;;;;;;4493552;31;20081;-69
2022/08/07 04:04:59;;;;;;;2.40;1.52;;;23.30;53.00;;;;;;4507733;31;20166;-68
2022/08/07 04:07:25;;;;;;;2.13;1.75;;;23.30;53.10;;;;;;4507891;31;20081;-69
2022/08/07 04:09:51;;;;;;;1.70;1.60;;;23.30;53.10;;;;;;4507680;31;20194;-70
2022/08/07 04:12:18;;;;;;;1.90;1.70;;;23.30;53.10;;;;;;4507372;31;20099;-68
2022/08/07 04:14:44;;;;;;;1.80;1.60;;;23.30;53.10;;;;;;4507622;31;20068;-68
2022/08/07 04:17:11;;;;;;;1.92;1.70;;;23.30;53.10;;;;;;4507627;31;20499;-68
2022/08/07 04:19:40;;;;;;;1.95;1.75;;;23.30;53.10;;;;;;4507841;31;20222;-68
2022/08/07 04:22:06;;;;;;;1.60;1.48;;;23.30;53.10;;;;;;4507612;31;20093;-68
2022/08/07 04:24:33;;;;;;;2.38;1.95;;;23.30;53.10;;;;;;4507296;31;20127;-69
2022/08/07 04:27:01;;;;;;;1.60;1.50;;;23.30;53.20;;;;;;4507332;31;20407;-69
2022/08/07 04:29:27;;;;;;;1.88;1.60;;;23.30;53.20;;;;;;4507546;31;20073;-68
2022/08/07 04:31:55;;;;;;;1.88;1.67;;;23.20;53.20;;;;;;4507686;31;20080;-68
2022/08/07 04:34:22;;;;;;;1.70;1.60;;;23.20;53.20;;;;;;4507597;31;20403;-68
2022/08/07 04:36:48;;;;;;;1.75;1.50;;;23.20;53.20;;;;;;4507752;31;20079;-68
2022/08/07 04:39:14;;;;;;;1.90;1.70;;;23.30;53.20;;;;;;4507170;31;20080;-68
2022/08/07 04:41:40;;;;;;;2.13;1.83;;;23.20;54.10;;;;;;4507253;31;20218;-68
2022/08/07 04:44:07;;;;;;;1.67;1.50;;;23.20;53.20;;;;;;4507692;31;20065;-68
2022/08/07 04:46:46;;;;;;;2.33;1.50;;;23.20;53.30;;;;;;4507213;31;20413;-69
2022/08/07 04:49:18;;;;;;;1.52;1.38;;;23.20;53.30;;;;;;4507264;31;20160;-68
2022/08/07 04:52:15;;;;;;;1.98;1.60;;;23.20;53.30;;;;;;4507445;31;20091;-68
2022/08/07 04:55:09;;;;;;;1.60;1.50;;;23.20;53.30;;;;;;4489829;31;20209;-68
2022/08/07 04:57:50;;;;;;;1.90;1.80;;;23.20;53.30;;;;;;4507641;31;20087;-69
2022/08/07 05:00:20;;;;;;;2.03;1.55;;;23.20;53.40;;;;;;4507368;31;20107;-68
2022/08/07 05:03:08;;;;;;;1.88;1.50;;;23.10;53.30;;;;;;4510384;31;20085;-68
2022/08/07 05:05:44;;;;;;;1.60;1.50;;;23.10;53.40;;;;;;4510463;31;20076;-68
2022/08/07 05:08:18;;;;;;;1.73;1.42;;;23.10;53.40;;;;;;4510537;31;20565;-68
2022/08/07 05:11:08;;;;;;;1.60;1.50;;;23.10;53.40;;;;;;4510054;31;20280;-68
2022/08/07 05:13:38;;;;;;;1.75;1.65;;;23.10;53.40;;;;;;4510274;31;20168;-69
2022/08/07 05:16:08;;;;;;;1.92;1.70;;;23.10;53.40;;;;;;4510236;31;20494;-68
2022/08/07 05:18:39;;;;;;;2.40;1.60;;;23.10;53.40;;;;;;4509817;31;20089;-69
2022/08/07 05:21:09;;;;;;;1.70;1.35;;;23.10;53.40;;;;;;4510299;31;20086;-68
2022/08/07 05:23:40;;;;;;;1.60;1.50;;;23.10;53.50;;;;;;4509966;31;20416;-68
2022/08/07 05:26:11;;;;;;;1.70;1.60;;;23.10;53.40;;;;;;4509479;31;20073;-68
2022/08/07 05:28:37;;;;;;;1.88;1.55;;;23.10;53.40;;;;;;4510090;31;20194;-68
2022/08/07 05:31:05;;;;;;;1.67;1.58;;;23.10;53.50;;;;;;4509746;31;20073;-68
2022/08/07 05:33:33;;;;;;;1.80;1.58;;;23.10;53.50;;;;;;4509620;31;20122;-69
2022/08/07 05:36:01;;;;;;;1.52;1.42;;;23.10;53.50;;;;;;4509830;31;20095;-68
2022/08/07 05:38:28;;;;;;;1.52;1.42;;;23.10;53.50;;;;;;4509444;31;20597;-68
2022/08/07 05:40:55;;;;;;;1.20;1.10;;;23.10;53.50;;;;;;4509913;31;20092;-68
2022/08/07 05:43:21;;;;;;;1.60;1.50;;;23.10;53.50;;;;;;4509302;31;20214;-68
2022/08/07 05:45:48;;;;;;;1.55;1.45;;;23.10;53.50;;;;;;4509357;31;20158;-68
2022/08/07 05:48:14;;;;;;;1.83;1.73;;;23.10;53.50;;;;;;4495392;31;20100;-68
2022/08/07 05:50:40;;;;;;;1.70;1.60;;;23.10;53.50;;;;;;4509185;31;20073;-68
2022/08/07 05:53:07;;;;;;;1.58;1.48;;;23.10;53.50;;;;;;4509215;31;20074;-68
2022/08/07 05:55:34;;;;;;;1.45;1.35;;;23.10;53.50;;;;;;4509675;31;20100;-69
2022/08/07 05:58:01;;;;;;;1.60;1.50;;;23.10;53.50;;;;;;4509688;31;20158;-68
2022/08/07 06:00:29;;;;;;;1.55;1.45;;;23.10;53.60;;;;;;4509405;31;20087;-68
2022/08/07 06:02:56;;;;;;;2.17;1.77;;;23.20;53.60;;;;;;4494575;31;20077;-69
2022/08/07 06:05:27;;;;;;;1.60;1.40;;;23.20;53.60;;;;;;4509221;31;20097;-68
2022/08/07 06:07:54;;;;;;;1.70;1.60;;;23.20;53.60;;;;;;4509580;31;20076;-68
2022/08/07 06:10:20;;;;;;;2.40;1.40;;;23.20;53.70;;;;;;4508908;31;20091;-68
2022/08/07 06:12:47;;;;;;;1.30;1.20;;;23.20;53.70;;;;;;4508736;31;20217;-68
2022/08/07 06:15:14;;;;;;;2.05;1.85;;;23.20;53.70;;;;;;4508803;31;20128;-68
2022/08/07 06:17:42;;;;;;;1.58;1.48;;;23.20;53.70;;;;;;4509169;31;20460;-68
2022/08/07 06:20:09;;;;;;;1.55;1.40;;;23.20;53.70;;;;;;4509083;31;20085;-68
2022/08/07 06:22:38;;;;;;;1.58;1.42;;;23.30;53.80;;;;;;4509011;31;20161;-68
2022/08/07 06:25:05;;;;;;;1.60;1.50;;;23.30;53.80;;;;;;4508738;31;20091;-68
2022/08/07 06:27:31;;;;;;;1.83;1.73;;;23.30;53.80;;;;;;4509113;31;20068;-68
2022/08/07 06:29:57;;;;;;;1.42;1.33;;;23.30;53.80;;;;;;4508875;31;20409;-68
2022/08/07 06:32:22;;;;;;;1.73;1.63;;;23.30;53.90;;;;;;4508734;31;20104;-68
2022/08/07 06:34:48;;;;;;;2.00;1.88;;;23.30;53.90;;;;;;4509055;31;20185;-68
2022/08/07 06:37:14;;;;;;;1.70;1.60;;;23.30;53.90;;;;;;4508475;31;20100;-68
2022/08/07 06:39:40;;;;;;;1.65;1.55;;;23.30;54.00;;;;;;4509076;31;20065;-68
2022/08/07 06:42:10;;;;;;;1.33;1.23;;;23.30;54.00;;;;;;4508694;31;20081;-67
2022/08/07 06:44:38;;;;;;;3.58;1.77;;;23.30;54.00;;;;;;4508508;31;20072;-67
2022/08/07 06:47:04;;;;;;;2.00;1.80;;;23.30;53.90;;;;;;4508160;31;20089;-68
2022/08/07 06:49:30;;;;;;;1.92;1.80;;;23.40;53.70;;;;;;4508345;31;20438;-67
2022/08/07 06:51:58;;;;;;;3.63;2.08;;;23.40;53.20;;;;;;4508537;31;20088;-68
2022/08/07 06:54:27;;;;;;;2.72;2.10;;;23.40;52.70;;;;;;4508506;31;20084;-68
2022/08/07 06:56:54;;;;;;;2.47;2.28;;;23.40;52.10;;;;;;4508540;31;20254;-67
2022/08/07 06:59:25;;;;;;;4.47;2.40;;;23.40;52.00;;;;;;4508494;31;20075;-67
2022/08/07 07:01:53;;;;;;;2.40;2.20;;;23.40;51.70;;;;;;4508651;31;20083;-67
2022/08/07 07:04:19;;;;;;;3.03;2.15;;;23.40;51.60;;;;;;4508372;31;20064;-67
2022/08/07 07:06:45;;;;;;;2.67;2.10;;;23.40;51.30;;;;;;4508265;31;20400;-67
2022/08/07 07:09:24;;;;;;;2.28;1.70;;;23.40;51.30;;;;;;4493781;31;20502;-67
2022/08/07 07:11:59;;;;;;;2.00;1.80;;;23.40;51.00;;;;;;4508316;31;20087;-67
2022/08/07 07:14:29;;;;;;;2.80;2.10;;;23.40;51.10;;;;;;4508220;31;20209;-67
2022/08/07 07:17:02;;;;;;;2.63;1.75;;;23.40;51.30;;;;;;4508335;31;20079;-67
2022/08/07 07:19:36;;;;;;;2.78;2.00;;;23.50;51.30;;;;;;4508807;31;20077;-67
2022/08/07 07:22:02;;;;;;;3.20;1.92;;;23.50;51.40;;;;;;4508190;31;20147;-67
2022/08/07 07:24:29;;;;;;;5.07;2.42;;;23.50;51.30;;;;;;4507502;31;20502;-67
2022/08/07 07:26:57;;;;;;;2.78;1.90;;;23.50;51.10;;;;;;4508061;31;20116;-70
2022/08/07 07:29:26;;;;;;;4.15;2.70;;;23.50;50.90;;;;;;4508069;31;20324;-67
2022/08/07 07:31:55;;;;;;;2.75;2.30;;;23.50;50.90;;;;;;4507957;31;20112;-68
2022/08/07 07:34:29;;;;;;;2.90;2.03;;;23.60;50.80;;;;;;4507695;31;20124;-67
2022/08/07 07:36:59;;;;;;;3.63;2.40;;;23.60;50.80;;;;;;4508252;31;20080;-67
2022/08/07 07:39:26;;;;;;;3.45;2.70;;;23.60;50.90;;;;;;4508285;31;20133;-66
2022/08/07 07:41:55;;;;;;;3.65;2.40;;;23.60;50.90;;;;;;4507874;31;20579;-69
2022/08/07 07:44:21;;;;;;;3.42;2.70;;;23.60;50.80;;;;;;4508132;31;20087;-67
2022/08/07 07:46:48;;;;;;;5.13;3.13;;;23.60;50.40;;;;;;4507616;31;20167;-67
2022/08/07 07:49:17;;;;;;;4.65;2.92;;;23.60;50.10;;;;;;4507734;31;20080;-67
2022/08/07 07:51:46;;;;;;;3.40;3.08;;;23.60;50.00;;;;;;4507511;31;20213;-67
2022/08/07 07:54:13;;;;;;;5.68;3.10;;;23.60;50.00;;;;;;4507785;31;20426;-67
2022/08/07 07:56:42;;;;;;;5.03;2.70;;;23.60;49.70;;;;;;4507756;31;20395;-67
2022/08/07 07:59:09;;;;;;;4.32;2.80;;;23.70;49.60;;;;;;4507754;31;20414;-67
2022/08/07 08:01:41;;;;;;;2.95;2.65;;;23.70;49.60;;;;;;4507484;31;20137;-67
2022/08/07 08:04:07;;;;;;;5.63;3.20;;;23.70;49.70;;;;;;4507631;31;20434;-67
2022/08/07 08:06:34;;;;;;;3.20;2.90;;;23.70;49.70;;;;;;4507635;31;20518;-67
2022/08/07 08:09:03;;;;;;;3.70;2.88;;;23.80;50.00;;;;;;4507665;31;20122;-67
2022/08/07 08:11:29;;;;;;;6.10;3.08;;;23.80;50.10;;;;;;4507697;31;20082;-66
2022/08/07 08:13:56;;;;;;;3.40;2.63;;;23.80;50.10;;;;;;4507426;31;20091;-69
2022/08/07 08:16:45;;;;;;;3.92;2.80;;;23.80;50.00;;;;;;4507914;31;20292;-66
2022/08/07 08:19:17;;;;;;;4.93;3.35;;;23.80;49.80;;;;;;4507920;31;20119;-67
2022/08/07 08:27:23;;;;;;;4.22;2.95;;;23.90;49.80;;;;;;4507579;31;20073;-66
2022/08/07 08:29:53;;;;;;;5.20;3.60;;;23.90;49.70;;;;;;4493273;31;20633;-66
2022/08/07 08:32:25;;;;;;;3.95;3.10;;;23.90;49.70;;;;;;4507574;31;20095;-67
2022/08/07 08:34:53;;;;;;;4.97;3.03;;;24.00;49.70;;;;;;4507990;31;20065;-67
2022/08/07 08:37:20;;;;;;;3.67;3.22;;;24.00;49.70;;;;;;4496304;31;20085;-66
2022/08/07 08:39:50;;;;;;;3.53;3.10;;;24.00;49.70;;;;;;4510699;31;20103;-67
2022/08/07 08:42:26;;;;;;;3.70;2.72;;;24.00;49.50;;;;;;4510225;31;20218;-67
2022/08/07 08:45:11;;;;;;;4.07;2.85;;;24.00;49.50;;;;;;4510708;31;20096;-66
2022/08/07 08:48:08;;;;;;;4.95;2.85;;;24.00;49.40;;;;;;4510683;31;20100;-66
2022/08/07 08:50:38;;;;;;;3.22;2.80;;;24.00;49.30;;;;;;4510457;31;20057;-66
2022/08/07 08:53:21;;;;;;;5.05;3.15;;;24.10;49.40;;;;;;4510216;31;20478;-67
2022/08/07 08:55:51;;;;;;;2.83;2.50;;;24.10;49.10;;;;;;4510314;31;20091;-67
2022/08/07 08:58:46;;;;;;;4.85;3.00;;;24.10;49.10;;;;;;4510392;31;20494;-67
2022/08/07 09:01:21;;;;;;;5.13;2.72;;;24.20;49.00;;;;;;4510331;31;20628;-67
2022/08/07 09:04:05;;;;;;;3.72;2.83;;;24.20;49.10;;;;;;4510417;31;20093;-67
2022/08/07 09:06:47;;;;;;;7.85;2.72;;;24.20;49.00;;;;;;4510415;31;20084;-66
2022/08/07 09:09:44;;;;;;;4.72;3.10;;;24.20;49.00;;;;;;4510497;31;20116;-66
2022/08/07 09:12:43;;;;;;;4.88;2.95;;;24.20;49.10;;;;;;4509822;31;20084;-66
2022/08/07 09:15:29;;;;;;;4.50;2.70;;;24.20;49.30;;;;;;4510003;31;20124;-66
2022/08/07 09:18:32;;;;;;;7.95;3.03;;;24.10;49.30;;;;;;4510016;31;20061;-67
2022/08/07 09:21:16;;;;;;;4.72;2.70;;;24.10;49.30;;;;;;4509888;31;20085;-67
2022/08/07 09:24:04;;;;;;;6.05;3.08;;;24.10;49.30;;;;;;4510024;31;20081;-67
2022/08/07 09:26:32;;;;;;;4.10;2.50;;;24.10;49.10;;;;;;4509899;31;20531;-67
2022/08/07 09:29:28;;;;;;;3.13;2.60;;;24.10;49.10;;;;;;4510061;31;20281;-67
2022/08/07 09:32:17;;;;;;;4.95;2.95;;;24.10;49.20;;;;;;4495782;31;20173;-66
2022/08/07 09:35:01;;;;;;;3.97;2.80;;;24.10;49.00;;;;;;4510076;31;20450;-67
2022/08/07 09:37:37;;;;;;;6.35;3.00;;;24.10;48.60;;;;;;4510081;31;20073;-67
2022/08/07 09:40:15;;;;;;;3.25;2.75;;;24.10;48.70;;;;;;4509422;31;20510;-67
2022/08/07 09:43:05;;;;;;;4.00;2.80;;;24.10;48.70;;;;;;4509955;31;20065;-67
2022/08/07 09:45:33;;;;;;;3.67;3.10;;;24.20;48.80;;;;;;4509442;31;20076;-66
2022/08/07 09:48:14;;;;;;;4.95;3.42;;;24.20;48.80;;;;;;4509009;31;20536;-67
2022/08/07 09:50:48;;;;;;;4.95;3.30;;;24.20;48.40;;;;;;4509549;31;20088;-67
2022/08/07 09:53:21;;;;;;;4.07;2.70;;;24.20;48.50;;;;;;4509378;31;20088;-66
2022/08/07 09:56:32;;;;;;;6.00;3.25;;;24.20;48.60;;;;;;4509671;31;20187;-67
2022/08/07 09:59:04;;;;;;;4.82;3.42;;;24.20;49.70;;;;;;4507300;31;20114;-67
2022/08/07 10:01:33;;;;;;;3.97;2.60;;;24.20;48.80;;;;;;4509412;31;20077;-66
2022/08/07 10:04:40;;;;;;;4.03;2.85;;;24.20;48.70;;;;;;4509197;31;20218;-67
2022/08/07 10:07:24;;;;;;;5.57;2.88;;;24.20;48.60;;;;;;4460002;32;20082;-66
2022/08/07 10:10:09;;;;;;;3.88;2.85;;;24.30;48.50;;;;;;4460199;32;20074;-66
2022/08/07 10:13:12;;;;;;;4.95;3.08;;;24.30;48.40;;;;;;4495767;31;20145;-67
2022/08/07 10:16:15;;;;;;;3.30;2.67;;;24.30;48.30;;;;;;4509175;31;20083;-67
2022/08/07 10:18:59;;;;;;;3.80;2.90;;;24.30;48.20;;;;;;4509109;31;20131;-66
2022/08/07 10:21:52;;;;;;;3.88;2.60;;;24.30;48.20;;;;;;4509303;31;20088;-67
2022/08/07 10:24:30;;;;;;;3.72;2.70;;;24.30;48.10;;;;;;4508692;31;20068;-67
2022/08/07 10:27:21;;;;;;;4.95;3.00;;;24.30;48.50;;;;;;4509147;31;20079;-65
2022/08/07 10:30:08;;;;;;;4.55;2.40;;;24.30;48.40;;;;;;4509197;31;20077;-67
2022/08/07 10:32:43;;;;;;;4.88;2.67;;;24.30;48.30;;;;;;4508684;31;20545;-68
2022/08/07 10:35:29;;;;;;;4.75;2.80;;;24.30;47.90;;;;;;4508877;31;20084;-67
2022/08/07 10:38:10;;;;;;;5.43;2.90;;;24.30;48.00;;;;;;4508668;31;20102;-67
2022/08/07 10:40:47;;;;;;;3.65;2.40;;;24.30;48.00;;;;;;4508834;31;20417;-67
2022/08/07 10:43:34;;;;;;;4.25;2.78;;;24.20;48.30;;;;;;4508782;31;20073;-67
2022/08/07 10:46:16;;;;;;;5.43;2.72;;;24.20;48.30;;;;;;4507856;31;20210;-67
2022/08/07 10:49:08;;;;;;;4.38;2.58;;;24.30;48.40;;;;;;4508996;31;20202;-67
2022/08/07 10:51:53;;;;;;;4.68;2.70;;;24.20;48.40;;;;;;4508649;31;20510;-67
2022/08/07 10:54:22;;;;;;;4.55;2.33;;;24.20;48.40;;;;;;4508610;31;20080;-67
2022/08/07 10:56:55;;;;;;;3.63;2.53;;;24.20;48.30;;;;;;4508744;31;20169;-66
2022/08/07 10:59:46;;;;;;;4.53;2.80;;;24.20;48.10;;;;;;4507779;31;20194;-67
2022/08/07 11:02:33;;;;;;;4.72;2.50;;;24.20;47.90;;;;;;4508610;31;20079;-67
2022/08/07 11:05:29;;;;;;;6.00;2.60;;;24.20;47.80;;;;;;4508068;31;20095;-67
2022/08/07 11:08:17;;;;;;;3.13;2.53;;;24.20;47.40;;;;;;4508509;31;20502;-67
2022/08/07 11:10:43;;;;;;;4.40;2.25;;;24.20;47.30;;;;;;4508223;31;20124;-67
2022/08/07 11:13:23;;;;;;;5.65;2.65;;;24.20;47.40;;;;;;4507944;31;20134;-66
2022/08/07 11:15:53;;;;;;;3.92;2.60;;;24.20;47.50;;;;;;4508063;31;20181;-67
2022/08/07 11:18:42;;;;;;;4.03;2.33;;;24.20;47.70;;;;;;4507954;31;20081;-67
2022/08/07 11:21:23;;;;;;;3.08;2.30;;;24.10;47.80;;;;;;4508731;31;20127;-67
2022/08/07 11:23:48;;;;;;;8.90;2.40;;;24.20;48.10;;;;;;4508265;31;20076;-67
2022/08/07 11:26:30;;;;;;;4.30;2.45;;;24.10;48.00;;;;;;4507727;31;20069;-66
2022/08/07 11:29:06;;;;;;;3.40;2.40;;;24.10;47.90;;;;;;4508239;31;20592;-66
2022/08/07 11:31:50;;;;;;;5.05;2.40;;;24.10;48.00;;;;;;4508315;31;20375;-66
2022/08/07 11:34:16;;;;;;;;;;;24.10;48.00;;;;;;4508715;31;20073;-67
2022/08/07 11:37:08;;;;;;;2.50;2.30;;;24.10;47.90;;;;;;4507966;31;19961;-67
2022/08/07 11:39:34;;;;;;;3.85;2.17;;;24.10;47.90;;;;;;4507961;31;20115;-67
2022/08/07 11:42:26;;;;;;;3.42;2.15;;;24.00;47.90;;;;;;4508177;31;20487;-68
2022/08/07 11:45:12;;;;;;;2.70;2.13;;;24.00;48.00;;;;;;4507908;31;20422;-67
2022/08/07 11:47:49;;;;;;;3.25;2.30;;;24.00;48.20;;;;;;4507764;31;20088;-68
2022/08/07 11:50:34;;;;;;;5.97;2.35;;;24.00;48.30;;;;;;4493712;31;20099;-68
2022/08/07 11:53:18;;;;;;;3.50;2.17;;;24.00;48.50;;;;;;4507890;31;20080;-68
2022/08/07 11:56:09;;;;;;;2.80;2.00;;;24.00;48.80;;;;;;4507870;31;20101;-67
2022/08/07 11:58:34;;;;;;;2.88;2.35;;;24.00;48.90;;;;;;4507878;31;20190;-67
2022/08/07 12:01:13;;;;;;;3.38;2.33;;;24.00;49.00;;;;;;4507691;31;20073;-67
2022/08/07 12:04:07;;;;;;;2.67;2.00;;;24.00;49.10;;;;;;4507736;31;20104;-67
2022/08/07 12:06:38;;;;;;;;;;;24.00;49.20;;;;;;4508349;31;20065;-68
2022/08/07 12:09:17;;;;;;;3.65;2.15;;;23.90;49.30;;;;;;4508192;31;20012;-67
2022/08/07 12:11:53;;;;;;;5.93;2.10;;;23.90;49.30;;;;;;4496622;31;20104;-67
2022/08/07 12:14:22;;;;;;;2.92;2.00;;;23.90;49.40;;;;;;4511158;31;20073;-67
2022/08/07 12:16:56;;;;;;;2.38;2.10;;;23.90;49.50;;;;;;4510897;31;20206;-67
2022/08/07 12:19:53;;;;;;;6.18;2.50;;;23.90;49.70;;;;;;4510909;31;20145;-67
2022/08/07 12:22:58;;;;;;;3.28;2.10;;;23.90;49.80;;;;;;4510704;31;20077;-67
2022/08/07 12:28:38;;;;;;;3.05;2.05;;;23.90;50.00;;;;;;4510974;31;19988;-69
2022/08/07 12:31:12;;;;;;;4.38;1.98;;;23.90;50.00;;;;;;4510367;31;20124;-67
2022/08/07 12:33:40;;;;;;;5.15;2.28;;;23.90;50.00;;;;;;4510638;31;20076;-68
2022/08/07 12:36:07;;;;;;;4.13;2.10;;;23.90;50.00;;;;;;4510566;31;20414;-67
2022/08/07 12:38:33;;;;;;;4.00;1.65;;;23.90;50.00;;;;;;4510545;31;20115;-69
2022/08/07 12:41:01;;;;;;;4.90;1.88;;;23.90;50.10;;;;;;4510745;31;20080;-67
2022/08/07 12:43:31;;;;;;;5.30;1.95;;;23.90;50.00;;;;;;4510417;31;20425;-67
2022/08/07 12:46:35;;;;;;;4.55;1.80;;;23.90;50.00;;;;;;4510095;31;20502;-68
2022/08/07 12:49:58;;;;;;;4.03;2.05;;;23.90;50.00;;;;;;4510571;31;20502;-69
2022/08/07 12:52:54;;;;;;;3.42;1.90;;;23.90;49.90;;;;;;4461145;32;20574;-67
2022/08/07 12:55:30;;;;;;;4.15;1.70;;;23.90;49.90;;;;;;4461356;32;20100;-67
2022/08/07 12:57:58;;;;;;;4.53;2.13;;;23.90;49.70;;;;;;4497452;31;20103;-66
2022/08/07 13:00:47;;;;;;;3.60;1.95;;;24.00;49.70;;;;;;4510412;31;20124;-73
2022/08/07 13:03:22;;;;;;;2.35;1.80;;;24.00;49.40;;;;;;4510225;31;20213;-67
2022/08/07 13:06:19;;;;;;;3.55;1.80;;;24.00;49.60;;;;;;4510050;31;20111;-69
2022/08/07 13:09:01;;;;;;;2.58;1.73;;;24.00;49.70;;;;;;4495943;31;20092;-67
2022/08/07 13:11:33;;;;;;;1.73;1.40;;;24.00;49.70;;;;;;4510231;31;20509;-67
2022/08/07 13:14:27;;;;;;;4.82;2.20;;;24.00;49.70;;;;;;4509912;31;20064;-67
2022/08/07 13:17:39;;;;;;;3.83;1.90;;;24.00;49.70;;;;;;4510106;31;20204;-67
2022/08/07 13:20:17;;;;;;;4.63;2.00;;;24.00;49.70;;;;;;4472176;31;20392;-67
2022/08/07 13:22:43;;;;;;;6.13;1.70;;;24.00;49.60;;;;;;4495157;31;20102;-67
2022/08/07 13:25:33;;;;;;;2.45;1.30;;;24.00;49.50;;;;;;4509570;31;20465;-67
2022/08/07 13:28:06;;;;;;;2.10;1.60;;;24.00;49.40;;;;;;4510011;31;20098;-67